sensor_id;sensor_type;location;lat;lon;timestamp;P1;durP1;ratioP1;P2;durP2;ratioP2
23179;SDS011;11758;45.756;11.432;2022-12-16T00:00:20;11.18;;;9.30;;
23179;SDS011;11758;45.756;11.432;2022-12-16T00:02:47;14.05;;;8.82;;
23179;SDS011;11758;45.756;11.432;2022-12-16T00:05:13;9.27;;;6.10;;
23179;SDS011;11758;45.756;11.432;2022-12-16T00:07:39;3.23;;;3.00;;
23179;SDS011;11758;45.756;11.432;2022-12-16T00:10:06;5.70;;;4.63;;
23179;SDS011;11758;45.756;11.432;2022-12-16T00:12:32;2.60;;;2.42;;
23179;SDS011;11758;45.756;11.432;2022-12-16T00:14:58;10.38;;;5.63;;
23179;SDS011;11758;45.756;11.432;2022-12-16T00:17:24;19.40;;;11.07;;
23179;SDS011;11758;45.756;11.432;2022-12-16T00:19:51;19.17;;;11.32;;
23179;SDS011;11758;45.756;11.432;2022-12-16T00:22:17;22.75;;;11.35;;
23179;SDS011;11758;45.756;11.432;2022-12-16T00:24:43;19.35;;;10.10;;
23179;SDS011;11758;45.756;11.432;2022-12-16T00:27:09;22.20;;;12.68;;
23179;SDS011;11758;45.756;11.432;2022-12-16T00:29:35;24.48;;;12.70;;
23179;SDS011;11758;45.756;11.432;2022-12-16T00:32:01;20.13;;;12.00;;
23179;SDS011;11758;45.756;11.432;2022-12-16T00:34:27;25.73;;;13.30;;
23179;SDS011;11758;45.756;11.432;2022-12-16T00:36:53;21.38;;;12.90;;
23179;SDS011;11758;45.756;11.432;2022-12-16T00:39:19;22.40;;;13.63;;
23179;SDS011;11758;45.756;11.432;2022-12-16T00:41:45;27.02;;;14.35;;
23179;SDS011;11758;45.756;11.432;2022-12-16T00:44:12;21.83;;;13.13;;
23179;SDS011;11758;45.756;11.432;2022-12-16T00:46:38;21.48;;;13.40;;
23179;SDS011;11758;45.756;11.432;2022-12-16T00:49:04;23.23;;;13.82;;
23179;SDS011;11758;45.756;11.432;2022-12-16T00:54:10;7.70;;;5.70;;
23179;SDS011;11758;45.756;11.432;2022-12-16T00:56:36;0.77;;;0.77;;
23179;SDS011;11758;45.756;11.432;2022-12-16T01:02:06;0.10;;;0.10;;
23179;SDS011;11758;45.756;11.432;2022-12-16T01:04:32;0.13;;;0.13;;
23179;SDS011;11758;45.756;11.432;2022-12-16T01:06:58;1.13;;;1.13;;
23179;SDS011;11758;45.756;11.432;2022-12-16T01:09:24;8.85;;;7.35;;
23179;SDS011;11758;45.756;11.432;2022-12-16T01:11:50;8.38;;;6.68;;
23179;SDS011;11758;45.756;11.432;2022-12-16T01:14:16;7.68;;;6.13;;
23179;SDS011;11758;45.756;11.432;2022-12-16T01:16:43;6.05;;;5.03;;
23179;SDS011;11758;45.756;11.432;2022-12-16T01:19:09;5.13;;;4.55;;
23179;SDS011;11758;45.756;11.432;2022-12-16T01:21:38;4.20;;;3.85;;
23179;SDS011;11758;45.756;11.432;2022-12-16T01:24:07;3.97;;;3.67;;
23179;SDS011;11758;45.756;11.432;2022-12-16T01:26:39;5.28;;;4.32;;
23179;SDS011;11758;45.756;11.432;2022-12-16T01:29:05;3.03;;;2.83;;
23179;SDS011;11758;45.756;11.432;2022-12-16T01:31:42;5.07;;;4.57;;
23179;SDS011;11758;45.756;11.432;2022-12-16T01:37:00;7.93;;;6.78;;
23179;SDS011;11758;45.756;11.432;2022-12-16T01:39:26;10.98;;;8.13;;
23179;SDS011;11758;45.756;11.432;2022-12-16T01:41:54;12.18;;;9.48;;
23179;SDS011;11758;45.756;11.432;2022-12-16T01:44:24;22.25;;;10.95;;
23179;SDS011;11758;45.756;11.432;2022-12-16T01:46:54;16.55;;;10.45;;
23179;SDS011;11758;45.756;11.432;2022-12-16T01:51:47;19.90;;;10.57;;
23179;SDS011;11758;45.756;11.432;2022-12-16T01:56:48;21.20;;;12.60;;
23179;SDS011;11758;45.756;11.432;2022-12-16T01:59:20;24.08;;;12.88;;
23179;SDS011;11758;45.756;11.432;2022-12-16T02:01:48;23.67;;;12.52;;
23179;SDS011;11758;45.756;11.432;2022-12-16T02:04:21;29.60;;;14.27;;
23179;SDS011;11758;45.756;11.432;2022-12-16T02:06:47;28.73;;;13.35;;
23179;SDS011;11758;45.756;11.432;2022-12-16T02:09:14;24.17;;;12.93;;
23179;SDS011;11758;45.756;11.432;2022-12-16T02:23:20;48.72;;;19.48;;
23179;SDS011;11758;45.756;11.432;2022-12-16T02:41:20;42.25;;;18.05;;
23179;SDS011;11758;45.756;11.432;2022-12-16T02:46:14;47.70;;;20.55;;
23179;SDS011;11758;45.756;11.432;2022-12-16T02:48:42;66.40;;;20.95;;
23179;SDS011;11758;45.756;11.432;2022-12-16T02:51:08;58.58;;;19.80;;
23179;SDS011;11758;45.756;11.432;2022-12-16T02:53:35;111.97;;;20.88;;
23179;SDS011;11758;45.756;11.432;2022-12-16T03:01:18;229.38;;;22.17;;
23179;SDS011;11758;45.756;11.432;2022-12-16T03:03:47;227.32;;;20.40;;
23179;SDS011;11758;45.756;11.432;2022-12-16T03:06:15;207.38;;;22.60;;
23179;SDS011;11758;45.756;11.432;2022-12-16T03:08:44;69.25;;;22.55;;
23179;SDS011;11758;45.756;11.432;2022-12-16T03:11:12;42.53;;;20.55;;
23179;SDS011;11758;45.756;11.432;2022-12-16T03:13:51;52.67;;;22.52;;
23179;SDS011;11758;45.756;11.432;2022-12-16T03:16:18;150.52;;;23.65;;
23179;SDS011;11758;45.756;11.432;2022-12-16T03:18:46;91.43;;;24.63;;
23179;SDS011;11758;45.756;11.432;2022-12-16T03:21:14;66.20;;;24.98;;
23179;SDS011;11758;45.756;11.432;2022-12-16T03:26:12;70.68;;;23.38;;
23179;SDS011;11758;45.756;11.432;2022-12-16T03:31:32;40.78;;;16.70;;
23179;SDS011;11758;45.756;11.432;2022-12-16T03:34:04;59.78;;;17.67;;
23179;SDS011;11758;45.756;11.432;2022-12-16T03:36:32;47.13;;;18.13;;
23179;SDS011;11758;45.756;11.432;2022-12-16T03:38:59;52.03;;;19.08;;
23179;SDS011;11758;45.756;11.432;2022-12-16T03:41:26;59.05;;;19.15;;
23179;SDS011;11758;45.756;11.432;2022-12-16T03:43:53;41.75;;;16.77;;
23179;SDS011;11758;45.756;11.432;2022-12-16T03:46:19;52.53;;;18.65;;
23179;SDS011;11758;45.756;11.432;2022-12-16T03:48:46;73.07;;;17.67;;
23179;SDS011;11758;45.756;11.432;2022-12-16T03:51:13;38.47;;;16.45;;
23179;SDS011;11758;45.756;11.432;2022-12-16T03:53:40;210.07;;;21.75;;
23179;SDS011;11758;45.756;11.432;2022-12-16T03:56:06;78.38;;;18.35;;
23179;SDS011;11758;45.756;11.432;2022-12-16T03:58:32;45.90;;;16.60;;
23179;SDS011;11758;45.756;11.432;2022-12-16T04:00:59;76.32;;;20.10;;
23179;SDS011;11758;45.756;11.432;2022-12-16T04:03:25;67.75;;;21.38;;
23179;SDS011;11758;45.756;11.432;2022-12-16T04:05:52;48.35;;;16.38;;
23179;SDS011;11758;45.756;11.432;2022-12-16T04:08:18;25.42;;;13.20;;
23179;SDS011;11758;45.756;11.432;2022-12-16T04:10:44;15.02;;;8.57;;
23179;SDS011;11758;45.756;11.432;2022-12-16T04:13:29;16.42;;;7.97;;
23179;SDS011;11758;45.756;11.432;2022-12-16T04:16:15;9.75;;;6.43;;
23179;SDS011;11758;45.756;11.432;2022-12-16T04:19:00;9.38;;;4.78;;
23179;SDS011;11758;45.756;11.432;2022-12-16T04:21:45;4.95;;;3.97;;
23179;SDS011;11758;45.756;11.432;2022-12-16T04:24:30;3.80;;;3.42;;
23179;SDS011;11758;45.756;11.432;2022-12-16T04:26:56;5.63;;;4.20;;
23179;SDS011;11758;45.756;11.432;2022-12-16T04:29:41;5.47;;;4.03;;
23179;SDS011;11758;45.756;11.432;2022-12-16T04:32:26;9.35;;;5.55;;
23179;SDS011;11758;45.756;11.432;2022-12-16T04:35:12;8.98;;;6.43;;
23179;SDS011;11758;45.756;11.432;2022-12-16T04:37:57;23.75;;;11.20;;
23179;SDS011;11758;45.756;11.432;2022-12-16T04:40:42;13.82;;;8.52;;
23179;SDS011;11758;45.756;11.432;2022-12-16T04:43:26;12.17;;;7.10;;
23179;SDS011;11758;45.756;11.432;2022-12-16T04:46:11;12.27;;;7.00;;
23179;SDS011;11758;45.756;11.432;2022-12-16T04:48:55;8.77;;;5.60;;
23179;SDS011;11758;45.756;11.432;2022-12-16T04:51:40;7.30;;;5.43;;
23179;SDS011;11758;45.756;11.432;2022-12-16T04:54:35;12.40;;;6.80;;
23179;SDS011;11758;45.756;11.432;2022-12-16T04:57:20;7.13;;;5.78;;
23179;SDS011;11758;45.756;11.432;2022-12-16T05:00:05;8.13;;;5.63;;
23179;SDS011;11758;45.756;11.432;2022-12-16T05:02:50;6.88;;;4.85;;
23179;SDS011;11758;45.756;11.432;2022-12-16T05:05:34;3.30;;;3.00;;
23179;SDS011;11758;45.756;11.432;2022-12-16T05:08:19;6.00;;;4.40;;
23179;SDS011;11758;45.756;11.432;2022-12-16T05:11:04;6.43;;;4.28;;
23179;SDS011;11758;45.756;11.432;2022-12-16T05:13:48;6.32;;;4.65;;
23179;SDS011;11758;45.756;11.432;2022-12-16T05:16:33;4.25;;;3.90;;
23179;SDS011;11758;45.756;11.432;2022-12-16T05:19:18;4.85;;;4.30;;
23179;SDS011;11758;45.756;11.432;2022-12-16T05:22:02;9.93;;;6.40;;
23179;SDS011;11758;45.756;11.432;2022-12-16T05:24:47;5.70;;;4.03;;
23179;SDS011;11758;45.756;11.432;2022-12-16T05:27:31;4.47;;;3.83;;
23179;SDS011;11758;45.756;11.432;2022-12-16T05:30:16;4.18;;;3.83;;
23179;SDS011;11758;45.756;11.432;2022-12-16T05:33:01;6.40;;;4.80;;
23179;SDS011;11758;45.756;11.432;2022-12-16T05:35:46;4.32;;;3.75;;
23179;SDS011;11758;45.756;11.432;2022-12-16T05:38:30;3.58;;;3.28;;
23179;SDS011;11758;45.756;11.432;2022-12-16T05:41:15;5.32;;;4.55;;
23179;SDS011;11758;45.756;11.432;2022-12-16T05:44:00;28.17;;;16.38;;
23179;SDS011;11758;45.756;11.432;2022-12-16T05:46:44;2.40;;;2.15;;
23179;SDS011;11758;45.756;11.432;2022-12-16T05:49:29;6.72;;;5.53;;
23179;SDS011;11758;45.756;11.432;2022-12-16T05:52:15;4.10;;;3.80;;
23179;SDS011;11758;45.756;11.432;2022-12-16T05:54:59;3.35;;;3.05;;
23179;SDS011;11758;45.756;11.432;2022-12-16T05:57:47;14.15;;;8.70;;
23179;SDS011;11758;45.756;11.432;2022-12-16T06:00:32;16.60;;;10.75;;
23179;SDS011;11758;45.756;11.432;2022-12-16T06:03:16;139.60;;;17.67;;
23179;SDS011;11758;45.756;11.432;2022-12-16T06:06:01;42.22;;;15.13;;
23179;SDS011;11758;45.756;11.432;2022-12-16T06:08:45;252.25;;;25.70;;
23179;SDS011;11758;45.756;11.432;2022-12-16T06:11:30;295.80;;;19.83;;
23179;SDS011;11758;45.756;11.432;2022-12-16T06:14:15;102.70;;;15.77;;
23179;SDS011;11758;45.756;11.432;2022-12-16T06:17:20;22.45;;;12.82;;
23179;SDS011;11758;45.756;11.432;2022-12-16T06:20:05;25.13;;;14.25;;
23179;SDS011;11758;45.756;11.432;2022-12-16T06:22:52;28.00;;;15.73;;
23179;SDS011;11758;45.756;11.432;2022-12-16T06:25:37;77.85;;;29.52;;
23179;SDS011;11758;45.756;11.432;2022-12-16T06:28:22;39.85;;;20.20;;
23179;SDS011;11758;45.756;11.432;2022-12-16T06:31:07;25.13;;;14.30;;
23179;SDS011;11758;45.756;11.432;2022-12-16T06:33:51;26.50;;;15.55;;
23179;SDS011;11758;45.756;11.432;2022-12-16T06:36:36;31.75;;;16.27;;
23179;SDS011;11758;45.756;11.432;2022-12-16T06:39:21;47.35;;;16.73;;
23179;SDS011;11758;45.756;11.432;2022-12-16T06:42:05;37.88;;;17.50;;
23179;SDS011;11758;45.756;11.432;2022-12-16T06:44:50;48.63;;;18.50;;
23179;SDS011;11758;45.756;11.432;2022-12-16T06:47:35;45.78;;;15.77;;
23179;SDS011;11758;45.756;11.432;2022-12-16T06:50:19;35.92;;;18.08;;
23179;SDS011;11758;45.756;11.432;2022-12-16T06:53:04;54.75;;;26.95;;
23179;SDS011;11758;45.756;11.432;2022-12-16T06:55:49;53.22;;;27.67;;
23179;SDS011;11758;45.756;11.432;2022-12-16T06:58:34;42.53;;;23.17;;
23179;SDS011;11758;45.756;11.432;2022-12-16T07:01:18;33.33;;;18.73;;
23179;SDS011;11758;45.756;11.432;2022-12-16T07:04:03;27.52;;;16.63;;
23179;SDS011;11758;45.756;11.432;2022-12-16T07:06:47;29.35;;;19.05;;
23179;SDS011;11758;45.756;11.432;2022-12-16T07:09:32;27.40;;;17.23;;
23179;SDS011;11758;45.756;11.432;2022-12-16T07:12:16;28.33;;;17.87;;
23179;SDS011;11758;45.756;11.432;2022-12-16T07:15:01;28.67;;;18.48;;
23179;SDS011;11758;45.756;11.432;2022-12-16T07:17:46;16.02;;;11.15;;
23179;SDS011;11758;45.756;11.432;2022-12-16T07:20:31;21.48;;;13.40;;
23179;SDS011;11758;45.756;11.432;2022-12-16T07:23:16;27.63;;;14.75;;
23179;SDS011;11758;45.756;11.432;2022-12-16T07:26:01;24.08;;;13.50;;
23179;SDS011;11758;45.756;11.432;2022-12-16T07:28:45;25.83;;;15.65;;
23179;SDS011;11758;45.756;11.432;2022-12-16T07:31:30;23.17;;;14.50;;
23179;SDS011;11758;45.756;11.432;2022-12-16T07:34:15;23.47;;;16.27;;
23179;SDS011;11758;45.756;11.432;2022-12-16T07:36:59;29.45;;;17.10;;
23179;SDS011;11758;45.756;11.432;2022-12-16T07:39:44;45.30;;;22.63;;
23179;SDS011;11758;45.756;11.432;2022-12-16T07:42:29;45.90;;;22.88;;
23179;SDS011;11758;45.756;11.432;2022-12-16T07:45:13;54.00;;;23.95;;
23179;SDS011;11758;45.756;11.432;2022-12-16T07:47:58;43.72;;;22.92;;
23179;SDS011;11758;45.756;11.432;2022-12-16T07:50:43;45.15;;;23.00;;
23179;SDS011;11758;45.756;11.432;2022-12-16T07:53:27;49.53;;;21.77;;
23179;SDS011;11758;45.756;11.432;2022-12-16T07:56:12;43.03;;;23.35;;
23179;SDS011;11758;45.756;11.432;2022-12-16T07:58:56;48.13;;;23.48;;
23179;SDS011;11758;45.756;11.432;2022-12-16T08:01:49;36.85;;;20.48;;
23179;SDS011;11758;45.756;11.432;2022-12-16T08:04:33;34.73;;;19.23;;
23179;SDS011;11758;45.756;11.432;2022-12-16T08:07:18;43.83;;;22.80;;
23179;SDS011;11758;45.756;11.432;2022-12-16T08:10:03;50.33;;;26.73;;
23179;SDS011;11758;45.756;11.432;2022-12-16T08:12:47;43.53;;;23.60;;
23179;SDS011;11758;45.756;11.432;2022-12-16T08:15:32;67.32;;;33.80;;
23179;SDS011;11758;45.756;11.432;2022-12-16T08:18:17;82.10;;;38.38;;
23179;SDS011;11758;45.756;11.432;2022-12-16T08:21:01;58.35;;;28.45;;
23179;SDS011;11758;45.756;11.432;2022-12-16T08:23:46;50.15;;;26.88;;
23179;SDS011;11758;45.756;11.432;2022-12-16T08:26:30;45.10;;;23.52;;
23179;SDS011;11758;45.756;11.432;2022-12-16T08:29:15;46.35;;;24.08;;
23179;SDS011;11758;45.756;11.432;2022-12-16T08:31:59;57.78;;;31.85;;
23179;SDS011;11758;45.756;11.432;2022-12-16T08:34:44;56.13;;;28.52;;
23179;SDS011;11758;45.756;11.432;2022-12-16T08:37:28;52.83;;;28.65;;
23179;SDS011;11758;45.756;11.432;2022-12-16T08:40:13;42.15;;;23.80;;
23179;SDS011;11758;45.756;11.432;2022-12-16T08:42:58;44.38;;;25.98;;
23179;SDS011;11758;45.756;11.432;2022-12-16T08:45:42;52.15;;;30.17;;
23179;SDS011;11758;45.756;11.432;2022-12-16T08:48:27;50.47;;;29.02;;
23179;SDS011;11758;45.756;11.432;2022-12-16T08:51:12;43.22;;;25.83;;
23179;SDS011;11758;45.756;11.432;2022-12-16T08:53:56;45.28;;;24.85;;
23179;SDS011;11758;45.756;11.432;2022-12-16T08:56:41;44.35;;;21.13;;
23179;SDS011;11758;45.756;11.432;2022-12-16T08:59:26;49.58;;;23.17;;
23179;SDS011;11758;45.756;11.432;2022-12-16T09:02:10;34.25;;;19.48;;
23179;SDS011;11758;45.756;11.432;2022-12-16T09:04:55;26.00;;;15.80;;
23179;SDS011;11758;45.756;11.432;2022-12-16T09:07:40;31.48;;;17.52;;
23179;SDS011;11758;45.756;11.432;2022-12-16T09:10:25;46.38;;;19.15;;
23179;SDS011;11758;45.756;11.432;2022-12-16T09:13:13;38.45;;;19.25;;
23179;SDS011;11758;45.756;11.432;2022-12-16T09:15:58;55.15;;;19.42;;
23179;SDS011;11758;45.756;11.432;2022-12-16T09:18:44;34.70;;;19.20;;
23179;SDS011;11758;45.756;11.432;2022-12-16T09:34:18;26.50;;;19.42;;
23179;SDS011;11758;45.756;11.432;2022-12-16T09:37:03;22.75;;;17.00;;
23179;SDS011;11758;45.756;11.432;2022-12-16T09:39:47;24.17;;;17.00;;
23179;SDS011;11758;45.756;11.432;2022-12-16T09:42:55;26.48;;;17.25;;
23179;SDS011;11758;45.756;11.432;2022-12-16T09:45:55;27.73;;;17.27;;
23179;SDS011;11758;45.756;11.432;2022-12-16T09:49:00;24.95;;;14.98;;
23179;SDS011;11758;45.756;11.432;2022-12-16T09:51:49;27.33;;;16.63;;
23179;SDS011;11758;45.756;11.432;2022-12-16T09:54:36;27.98;;;16.27;;
23179;SDS011;11758;45.756;11.432;2022-12-16T09:57:22;26.52;;;15.60;;
23179;SDS011;11758;45.756;11.432;2022-12-16T10:00:12;30.15;;;18.10;;
23179;SDS011;11758;45.756;11.432;2022-12-16T10:03:01;29.73;;;17.30;;
23179;SDS011;11758;45.756;11.432;2022-12-16T10:05:53;31.67;;;19.00;;
23179;SDS011;11758;45.756;11.432;2022-12-16T10:08:40;28.17;;;16.80;;
23179;SDS011;11758;45.756;11.432;2022-12-16T10:11:33;32.22;;;20.15;;
23179;SDS011;11758;45.756;11.432;2022-12-16T10:14:26;32.50;;;19.52;;
23179;SDS011;11758;45.756;11.432;2022-12-16T10:17:14;35.35;;;21.10;;
23179;SDS011;11758;45.756;11.432;2022-12-16T10:20:08;38.95;;;21.92;;
23179;SDS011;11758;45.756;11.432;2022-12-16T10:22:57;28.92;;;19.35;;
23179;SDS011;11758;45.756;11.432;2022-12-16T10:31:15;30.75;;;20.55;;
23179;SDS011;11758;45.756;11.432;2022-12-16T10:34:01;29.00;;;17.92;;
23179;SDS011;11758;45.756;11.432;2022-12-16T10:36:46;34.75;;;21.55;;
23179;SDS011;11758;45.756;11.432;2022-12-16T10:39:32;34.58;;;22.73;;
23179;SDS011;11758;45.756;11.432;2022-12-16T10:42:20;35.83;;;21.08;;
23179;SDS011;11758;45.756;11.432;2022-12-16T10:45:07;32.28;;;21.00;;
23179;SDS011;11758;45.756;11.432;2022-12-16T10:47:57;32.63;;;20.25;;
23179;SDS011;11758;45.756;11.432;2022-12-16T10:50:41;34.97;;;23.30;;
23179;SDS011;11758;45.756;11.432;2022-12-16T10:53:26;40.95;;;26.30;;
23179;SDS011;11758;45.756;11.432;2022-12-16T10:59:14;45.83;;;26.05;;
23179;SDS011;11758;45.756;11.432;2022-12-16T11:02:00;48.20;;;30.50;;
23179;SDS011;11758;45.756;11.432;2022-12-16T11:04:45;48.63;;;31.90;;
23179;SDS011;11758;45.756;11.432;2022-12-16T11:10:29;35.75;;;23.63;;
23179;SDS011;11758;45.756;11.432;2022-12-16T11:16:27;36.28;;;24.05;;
23179;SDS011;11758;45.756;11.432;2022-12-16T11:19:22;38.42;;;26.60;;
23179;SDS011;11758;45.756;11.432;2022-12-16T11:22:12;37.85;;;27.02;;
23179;SDS011;11758;45.756;11.432;2022-12-16T11:25:04;35.33;;;24.70;;
23179;SDS011;11758;45.756;11.432;2022-12-16T11:27:49;32.67;;;22.85;;
23179;SDS011;11758;45.756;11.432;2022-12-16T11:30:34;38.17;;;23.23;;
23179;SDS011;11758;45.756;11.432;2022-12-16T11:33:22;25.65;;;19.70;;
23179;SDS011;11758;45.756;11.432;2022-12-16T11:38:53;32.70;;;21.75;;
23179;SDS011;11758;45.756;11.432;2022-12-16T11:41:39;31.27;;;21.38;;
23179;SDS011;11758;45.756;11.432;2022-12-16T11:44:34;37.70;;;23.83;;
23179;SDS011;11758;45.756;11.432;2022-12-16T11:47:39;45.92;;;30.65;;
23179;SDS011;11758;45.756;11.432;2022-12-16T11:50:28;28.25;;;20.52;;
23179;SDS011;11758;45.756;11.432;2022-12-16T11:53:31;31.45;;;21.83;;
23179;SDS011;11758;45.756;11.432;2022-12-16T11:56:22;35.92;;;24.25;;
23179;SDS011;11758;45.756;11.432;2022-12-16T11:59:11;42.55;;;27.98;;
23179;SDS011;11758;45.756;11.432;2022-12-16T12:01:58;42.17;;;27.42;;
23179;SDS011;11758;45.756;11.432;2022-12-16T12:04:44;37.25;;;22.27;;
23179;SDS011;11758;45.756;11.432;2022-12-16T12:07:38;47.45;;;25.98;;
23179;SDS011;11758;45.756;11.432;2022-12-16T12:10:30;45.47;;;24.83;;
23179;SDS011;11758;45.756;11.432;2022-12-16T12:16:48;36.78;;;23.92;;
23179;SDS011;11758;45.756;11.432;2022-12-16T12:19:27;42.50;;;26.35;;
23179;SDS011;11758;45.756;11.432;2022-12-16T12:22:27;36.47;;;23.60;;
23179;SDS011;11758;45.756;11.432;2022-12-16T12:25:27;36.05;;;24.20;;
23179;SDS011;11758;45.756;11.432;2022-12-16T12:28:41;32.80;;;20.10;;
23179;SDS011;11758;45.756;11.432;2022-12-16T12:31:36;30.90;;;20.77;;
23179;SDS011;11758;45.756;11.432;2022-12-16T12:34:46;35.58;;;22.38;;
23179;SDS011;11758;45.756;11.432;2022-12-16T12:37:30;34.28;;;21.27;;
23179;SDS011;11758;45.756;11.432;2022-12-16T12:43:46;56.92;;;27.58;;
23179;SDS011;11758;45.756;11.432;2022-12-16T12:46:27;44.13;;;24.30;;
23179;SDS011;11758;45.756;11.432;2022-12-16T12:52:10;357.45;;;43.90;;
23179;SDS011;11758;45.756;11.432;2022-12-16T12:55:00;543.88;;;45.72;;
23179;SDS011;11758;45.756;11.432;2022-12-16T12:57:46;465.60;;;44.45;;
23179;SDS011;11758;45.756;11.432;2022-12-16T13:00:34;670.95;;;47.42;;
23179;SDS011;11758;45.756;11.432;2022-12-16T13:03:26;416.38;;;40.58;;
23179;SDS011;11758;45.756;11.432;2022-12-16T13:06:13;274.77;;;42.17;;
23179;SDS011;11758;45.756;11.432;2022-12-16T13:08:59;578.92;;;48.08;;
23179;SDS011;11758;45.756;11.432;2022-12-16T13:20:37;632.63;;;58.47;;
23179;SDS011;11758;45.756;11.432;2022-12-16T13:23:27;618.17;;;82.13;;
23179;SDS011;11758;45.756;11.432;2022-12-16T13:26:16;342.88;;;43.17;;
23179;SDS011;11758;45.756;11.432;2022-12-16T13:29:05;189.25;;;40.47;;
23179;SDS011;11758;45.756;11.432;2022-12-16T13:35:04;469.15;;;48.83;;
23179;SDS011;11758;45.756;11.432;2022-12-16T13:37:59;409.05;;;48.38;;
23179;SDS011;11758;45.756;11.432;2022-12-16T13:46:50;224.00;;;39.60;;
23179;SDS011;11758;45.756;11.432;2022-12-16T13:52:22;271.67;;;42.00;;
23179;SDS011;11758;45.756;11.432;2022-12-16T13:55:15;388.13;;;54.17;;
23179;SDS011;11758;45.756;11.432;2022-12-16T13:58:02;202.23;;;39.10;;
23179;SDS011;11758;45.756;11.432;2022-12-16T14:00:57;171.30;;;38.65;;
23179;SDS011;11758;45.756;11.432;2022-12-16T14:03:43;212.40;;;39.90;;
23179;SDS011;11758;45.756;11.432;2022-12-16T14:06:29;174.60;;;34.50;;
23179;SDS011;11758;45.756;11.432;2022-12-16T14:12:51;222.25;;;37.10;;
23179;SDS011;11758;45.756;11.432;2022-12-16T14:15:55;116.50;;;31.30;;
23179;SDS011;11758;45.756;11.432;2022-12-16T14:21:33;129.82;;;34.00;;
23179;SDS011;11758;45.756;11.432;2022-12-16T14:24:25;180.25;;;31.95;;
23179;SDS011;11758;45.756;11.432;2022-12-16T14:27:14;198.75;;;37.17;;
23179;SDS011;11758;45.756;11.432;2022-12-16T14:30:00;213.55;;;41.75;;
23179;SDS011;11758;45.756;11.432;2022-12-16T14:32:44;237.43;;;41.67;;
23179;SDS011;11758;45.756;11.432;2022-12-16T14:35:29;150.63;;;36.38;;
23179;SDS011;11758;45.756;11.432;2022-12-16T14:40:58;230.63;;;38.38;;
23179;SDS011;11758;45.756;11.432;2022-12-16T14:43:43;238.02;;;35.50;;
23179;SDS011;11758;45.756;11.432;2022-12-16T14:46:28;168.57;;;34.38;;
23179;SDS011;11758;45.756;11.432;2022-12-16T14:49:21;166.82;;;37.13;;
23179;SDS011;11758;45.756;11.432;2022-12-16T14:55:04;255.05;;;47.17;;
23179;SDS011;11758;45.756;11.432;2022-12-16T15:01:00;154.35;;;43.30;;
23179;SDS011;11758;45.756;11.432;2022-12-16T15:03:46;205.98;;;41.03;;
23179;SDS011;11758;45.756;11.432;2022-12-16T15:06:41;197.38;;;40.88;;
23179;SDS011;11758;45.756;11.432;2022-12-16T15:09:48;72.25;;;31.38;;
23179;SDS011;11758;45.756;11.432;2022-12-16T15:12:33;115.07;;;34.05;;
23179;SDS011;11758;45.756;11.432;2022-12-16T15:15:30;89.00;;;29.77;;
23179;SDS011;11758;45.756;11.432;2022-12-16T15:21:31;85.05;;;34.42;;
23179;SDS011;11758;45.756;11.432;2022-12-16T15:24:17;106.35;;;37.13;;
23179;SDS011;11758;45.756;11.432;2022-12-16T15:27:51;245.20;;;42.28;;
23179;SDS011;11758;45.756;11.432;2022-12-16T15:33:14;62.38;;;29.48;;
23179;SDS011;11758;45.756;11.432;2022-12-16T15:36:00;67.82;;;30.33;;
23179;SDS011;11758;45.756;11.432;2022-12-16T15:38:45;144.23;;;33.92;;
23179;SDS011;11758;45.756;11.432;2022-12-16T15:41:30;102.75;;;37.92;;
23179;SDS011;11758;45.756;11.432;2022-12-16T15:47:01;157.32;;;38.20;;
23179;SDS011;11758;45.756;11.432;2022-12-16T15:49:46;97.20;;;35.60;;
23179;SDS011;11758;45.756;11.432;2022-12-16T15:52:38;322.35;;;46.08;;
23179;SDS011;11758;45.756;11.432;2022-12-16T16:01:06;254.05;;;41.10;;
23179;SDS011;11758;45.756;11.432;2022-12-16T16:03:54;187.13;;;38.83;;
23179;SDS011;11758;45.756;11.432;2022-12-16T16:06:40;82.07;;;35.08;;
23179;SDS011;11758;45.756;11.432;2022-12-16T16:09:28;124.22;;;36.22;;
23179;SDS011;11758;45.756;11.432;2022-12-16T16:12:15;172.98;;;35.38;;
23179;SDS011;11758;45.756;11.432;2022-12-16T16:15:01;336.17;;;43.22;;
23179;SDS011;11758;45.756;11.432;2022-12-16T16:17:46;133.77;;;36.15;;
23179;SDS011;11758;45.756;11.432;2022-12-16T16:20:31;140.32;;;36.65;;
23179;SDS011;11758;45.756;11.432;2022-12-16T16:23:16;221.55;;;36.65;;
23179;SDS011;11758;45.756;11.432;2022-12-16T16:26:01;138.73;;;37.00;;
23179;SDS011;11758;45.756;11.432;2022-12-16T16:28:46;159.77;;;35.55;;
23179;SDS011;11758;45.756;11.432;2022-12-16T16:31:30;115.57;;;32.88;;
23179;SDS011;11758;45.756;11.432;2022-12-16T16:34:15;147.70;;;38.50;;
23179;SDS011;11758;45.756;11.432;2022-12-16T16:36:59;201.80;;;40.15;;
23179;SDS011;11758;45.756;11.432;2022-12-16T16:39:44;134.40;;;35.70;;
23179;SDS011;11758;45.756;11.432;2022-12-16T16:42:28;86.40;;;35.30;;
23179;SDS011;11758;45.756;11.432;2022-12-16T16:45:13;97.43;;;36.55;;
23179;SDS011;11758;45.756;11.432;2022-12-16T16:48:05;81.70;;;32.83;;
23179;SDS011;11758;45.756;11.432;2022-12-16T16:50:56;110.45;;;38.08;;
23179;SDS011;11758;45.756;11.432;2022-12-16T16:53:42;105.47;;;37.13;;
23179;SDS011;11758;45.756;11.432;2022-12-16T16:56:27;96.57;;;35.35;;
23179;SDS011;11758;45.756;11.432;2022-12-16T16:59:13;108.10;;;39.35;;
23179;SDS011;11758;45.756;11.432;2022-12-16T17:01:58;107.97;;;41.17;;
23179;SDS011;11758;45.756;11.432;2022-12-16T17:04:43;101.70;;;41.72;;
23179;SDS011;11758;45.756;11.432;2022-12-16T17:07:28;102.72;;;44.08;;
23179;SDS011;11758;45.756;11.432;2022-12-16T17:10:13;107.22;;;47.03;;
23179;SDS011;11758;45.756;11.432;2022-12-16T17:12:57;97.57;;;44.90;;
23179;SDS011;11758;45.756;11.432;2022-12-16T17:15:42;80.05;;;39.78;;
23179;SDS011;11758;45.756;11.432;2022-12-16T17:18:26;99.40;;;41.58;;
23179;SDS011;11758;45.756;11.432;2022-12-16T17:21:11;86.47;;;40.38;;
23179;SDS011;11758;45.756;11.432;2022-12-16T17:23:56;101.38;;;43.50;;
23179;SDS011;11758;45.756;11.432;2022-12-16T17:26:41;92.10;;;43.45;;
23179;SDS011;11758;45.756;11.432;2022-12-16T17:29:26;88.28;;;39.53;;
23179;SDS011;11758;45.756;11.432;2022-12-16T17:32:11;84.85;;;41.70;;
23179;SDS011;11758;45.756;11.432;2022-12-16T17:35:13;89.20;;;43.45;;
23179;SDS011;11758;45.756;11.432;2022-12-16T17:37:57;108.05;;;46.45;;
23179;SDS011;11758;45.756;11.432;2022-12-16T17:40:42;98.93;;;44.92;;
23179;SDS011;11758;45.756;11.432;2022-12-16T17:43:27;96.45;;;44.28;;
23179;SDS011;11758;45.756;11.432;2022-12-16T17:46:11;100.50;;;45.78;;
23179;SDS011;11758;45.756;11.432;2022-12-16T17:48:57;85.00;;;40.40;;
23179;SDS011;11758;45.756;11.432;2022-12-16T17:51:42;78.60;;;38.33;;
23179;SDS011;11758;45.756;11.432;2022-12-16T17:54:43;88.65;;;41.08;;
23179;SDS011;11758;45.756;11.432;2022-12-16T17:57:28;91.55;;;45.05;;
23179;SDS011;11758;45.756;11.432;2022-12-16T18:00:13;95.00;;;48.75;;
23179;SDS011;11758;45.756;11.432;2022-12-16T18:02:57;110.82;;;50.15;;